Time;durP1;ratioP1;P1;durP2;ratioP2;P2;SDS_P1;SDS_P2;PMS_P1;PMS_P2;Temp;Humidity;BMP_temperature;BMP_pressure;BME280_temperature;BME280_humidity;BME280_pressure;Samples;Min_cycle;Max_cycle;Signal;HPM_P1;HPM_P2
2022/06/27 00:02:17;;;;;;;11.43;3.30;;;;;;;;;;5069674;28;20041;-62
2022/06/27 00:04:43;;;;;;;10.48;3.25;;;;;;;;;;5065233;28;20568;-62
2022/06/27 00:07:11;;;;;;;11.85;3.20;;;;;;;;;;5065424;28;20586;-63
2022/06/27 00:09:38;;;;;;;13.80;3.72;;;;;;;;;;5063084;28;20048;-63
2022/06/27 00:12:04;;;;;;;11.52;3.65;;;;;;;;;;5072078;28;20055;-62
2022/06/27 00:14:30;;;;;;;10.77;3.40;;;;;;;;;;5065824;28;20420;-62
2022/06/27 00:16:56;;;;;;;13.30;3.50;;;;;;;;;;5065108;28;20059;-66
2022/06/27 00:19:22;;;;;;;12.93;3.58;;;;;;;;;;5065696;28;20059;-61
2022/06/27 00:21:48;;;;;;;17.70;3.35;;;;;;;;;;5058520;28;20056;-63
2022/06/27 00:24:13;;;;;;;16.10;4.22;;;;;;;;;;5055382;28;20116;-61
2022/06/27 00:26:39;;;;;;;14.82;3.60;;;;;;;;;;5050831;28;20056;-60
2022/06/27 00:29:05;;;;;;;14.18;4.18;;;;;;;;;;5050226;28;20049;-61
2022/06/27 00:31:31;;;;;;;13.15;3.38;;;;;;;;;;5045637;28;20055;-61
2022/06/27 00:33:57;;;;;;;10.75;3.00;;;;;;;;;;5045862;28;20045;-62
2022/06/27 00:36:24;;;;;;;11.57;3.70;;;;;;;;;;5049438;28;20044;-61
2022/06/27 00:38:49;;;;;;;13.63;3.65;;;;;;;;;;5040175;28;20053;-60
2022/06/27 00:41:15;;;;;;;10.70;3.22;;;;;;;;;;5049307;28;20095;-63
2022/06/27 00:43:45;;;;;;;14.55;3.45;;;;;;;;;;5051580;28;20051;-61
2022/06/27 00:46:11;;;;;;;13.10;3.17;;;;;;;;;;5047909;28;20501;-60
2022/06/27 00:48:37;;;;;;;11.98;3.40;;;;;;;;;;5042193;28;20072;-62
2022/06/27 00:51:03;;;;;;;16.40;3.33;;;;;;;;;;5049613;28;20059;-65
2022/06/27 00:53:30;;;;;;;11.95;2.97;;;;;;;;;;5051762;28;20103;-62
2022/06/27 00:55:56;;;;;;;11.57;3.45;;;;;;;;;;5050286;28;20186;-61
2022/06/27 00:58:22;;;;;;;12.88;2.85;;;;;;;;;;5047361;28;20456;-63
2022/06/27 01:00:48;;;;;;;9.85;3.15;;;;;;;;;;5050538;28;20088;-59
2022/06/27 01:03:14;;;;;;;11.18;3.13;;;;;;;;;;5042990;28;20065;-61
2022/06/27 01:05:51;;;;;;;9.88;2.80;;;;;;;;;;5037318;28;20094;-60
2022/06/27 01:08:21;;;;;;;12.32;2.95;;;;;;;;;;5047519;28;20262;-64
2022/06/27 01:10:48;;;;;;;9.80;3.13;;;;;;;;;;5048983;28;20128;-61
2022/06/27 01:13:14;;;;;;;11.77;3.38;;;;;;;;;;5045163;28;20057;-62
2022/06/27 01:15:42;;;;;;;14.02;3.05;;;;;;;;;;5041269;28;20041;-62
2022/06/27 01:18:10;;;;;;;13.63;3.83;;;;;;;;;;5050353;28;20049;-59
2022/06/27 01:20:36;;;;;;;10.90;3.90;;;;;;;;;;5050792;28;20049;-60
2022/06/27 01:23:02;;;;;;;9.82;3.05;;;;;;;;;;5051896;28;20052;-60
2022/06/27 01:25:28;;;;;;;9.93;3.38;;;;;;;;;;5047430;28;20079;-63
2022/06/27 01:27:54;;;;;;;12.00;3.63;;;;;;;;;;5048525;28;20080;-61
2022/06/27 01:30:21;;;;;;;11.25;3.08;;;;;;;;;;5049195;28;20049;-60
2022/06/27 01:32:50;;;;;;;14.48;3.25;;;;;;;;;;5046951;28;20121;-62
2022/06/27 01:35:16;;;;;;;12.20;2.95;;;;;;;;;;5042614;28;20052;-61
2022/06/27 01:37:42;;;;;;;9.15;3.22;;;;;;;;;;5042794;28;20051;-62
2022/06/27 01:40:08;;;;;;;8.95;3.40;;;;;;;;;;5045482;28;20524;-59
2022/06/27 01:42:35;;;;;;;19.08;3.75;;;;;;;;;;5044323;28;20094;-62
2022/06/27 01:45:01;;;;;;;11.13;3.05;;;;;;;;;;5042499;28;20182;-60
2022/06/27 01:47:29;;;;;;;15.77;3.47;;;;;;;;;;5048504;28;20055;-60
2022/06/27 01:49:55;;;;;;;10.25;3.05;;;;;;;;;;5047131;28;20459;-60
2022/06/27 01:52:21;;;;;;;13.93;3.45;;;;;;;;;;5049584;28;20045;-59
2022/06/27 01:54:47;;;;;;;10.05;2.92;;;;;;;;;;5045672;28;20053;-61
2022/06/27 01:57:16;;;;;;;12.32;3.25;;;;;;;;;;5050986;28;20126;-60
2022/06/27 01:59:42;;;;;;;8.25;3.50;;;;;;;;;;5049863;28;20065;-61
2022/06/27 02:02:09;;;;;;;9.32;3.05;;;;;;;;;;5045700;28;20527;-60
2022/06/27 02:04:36;;;;;;;14.77;3.42;;;;;;;;;;5046391;28;20049;-59
2022/06/27 02:07:03;;;;;;;9.68;2.67;;;;;;;;;;5048990;28;20059;-61
2022/06/27 02:12:53;;;;;;;9.13;2.95;;;;;;;;;;5025700;28;20095;-61
2022/06/27 02:15:19;;;;;;;13.25;2.80;;;;;;;;;;5028567;28;20529;-62
2022/06/27 02:17:44;;;;;;;11.77;2.90;;;;;;;;;;5028199;28;20480;-60
2022/06/27 02:20:10;;;;;;;18.08;3.65;;;;;;;;;;5037386;28;20163;-60
2022/06/27 02:22:37;;;;;;;12.00;3.10;;;;;;;;;;5030798;28;20099;-61
2022/06/27 02:25:03;;;;;;;11.40;3.38;;;;;;;;;;5029564;28;20041;-61
2022/06/27 02:27:34;;;;;;;14.52;3.45;;;;;;;;;;5025210;28;20042;-61
2022/06/27 02:30:01;;;;;;;8.38;3.03;;;;;;;;;;5029760;28;20049;-60
2022/06/27 02:32:28;;;;;;;12.88;3.17;;;;;;;;;;5028887;28;20045;-61
2022/06/27 02:34:58;;;;;;;18.90;3.50;;;;;;;;;;5029836;28;20040;-61
2022/06/27 02:37:24;;;;;;;12.88;3.67;;;;;;;;;;5026047;28;20057;-61
2022/06/27 02:39:53;;;;;;;10.30;3.20;;;;;;;;;;5035564;28;20044;-59
2022/06/27 02:42:20;;;;;;;8.88;3.00;;;;;;;;;;5029547;28;20069;-59
2022/06/27 02:44:50;;;;;;;13.65;3.50;;;;;;;;;;5029775;28;20124;-60
2022/06/27 02:47:23;;;;;;;13.73;2.72;;;;;;;;;;5024259;28;20387;-59
2022/06/27 02:49:49;;;;;;;11.98;3.03;;;;;;;;;;5021880;28;20124;-60
2022/06/27 02:52:30;;;;;;;9.13;3.15;;;;;;;;;;5016711;28;20060;-61
2022/06/27 02:55:11;;;;;;;9.95;3.03;;;;;;;;;;5029139;28;20850;-61
2022/06/27 02:58:00;;;;;;;10.35;3.40;;;;;;;;;;5024438;28;20571;-60
2022/06/27 03:00:28;;;;;;;18.00;4.05;;;;;;;;;;5026587;28;20075;-63
2022/06/27 03:02:55;;;;;;;10.93;3.72;;;;;;;;;;5029040;28;20554;-60
2022/06/27 03:05:21;;;;;;;10.10;3.95;;;;;;;;;;5029849;28;20081;-60
2022/06/27 03:07:47;;;;;;;11.60;3.97;;;;;;;;;;5027888;28;20048;-61
2022/06/27 03:10:14;;;;;;;13.77;4.22;;;;;;;;;;5026246;28;20051;-59
2022/06/27 03:12:41;;;;;;;11.98;4.15;;;;;;;;;;5023851;28;20050;-60
2022/06/27 03:15:08;;;;;;;15.90;4.95;;;;;;;;;;5028072;28;20103;-60
2022/06/27 03:17:34;;;;;;;16.77;4.68;;;;;;;;;;5025214;28;20562;-60
2022/06/27 03:19:59;;;;;;;15.07;4.43;;;;;;;;;;5028075;28;20063;-61
2022/06/27 03:22:26;;;;;;;16.35;4.22;;;;;;;;;;5027546;28;20372;-63
2022/06/27 03:24:51;;;;;;;15.57;5.03;;;;;;;;;;5021196;28;20418;-59
2022/06/27 03:27:17;;;;;;;13.88;4.00;;;;;;;;;;5022994;28;20048;-61
2022/06/27 03:29:43;;;;;;;14.65;4.63;;;;;;;;;;5021738;28;20121;-62
2022/06/27 03:32:09;;;;;;;14.63;4.88;;;;;;;;;;5029793;28;20053;-61
2022/06/27 03:34:35;;;;;;;13.43;4.35;;;;;;;;;;5028444;28;20042;-60
2022/06/27 03:37:01;;;;;;;11.93;4.40;;;;;;;;;;5027815;28;20053;-60
2022/06/27 03:39:27;;;;;;;13.13;4.15;;;;;;;;;;5026039;28;20056;-60
2022/06/27 03:41:53;;;;;;;15.18;4.00;;;;;;;;;;5030137;28;20045;-60
2022/06/27 03:44:19;;;;;;;16.80;4.30;;;;;;;;;;5025841;28;20122;-60
2022/06/27 03:46:45;;;;;;;10.75;4.18;;;;;;;;;;5024846;28;20440;-61
2022/06/27 03:51:55;;;;;;;12.05;4.03;;;;;;;;;;5027623;28;20140;-59
2022/06/27 03:54:21;;;;;;;12.23;4.10;;;;;;;;;;5026871;28;20124;-60
2022/06/27 03:56:46;;;;;;;11.23;4.05;;;;;;;;;;5030391;28;20049;-60
2022/06/27 03:59:13;;;;;;;16.17;3.90;;;;;;;;;;5029755;28;20045;-59
2022/06/27 04:01:39;;;;;;;14.13;4.30;;;;;;;;;;5032533;28;20049;-61
2022/06/27 04:04:05;;;;;;;13.45;4.20;;;;;;;;;;5032363;28;20045;-61
2022/06/27 04:06:32;;;;;;;10.23;3.90;;;;;;;;;;5031813;28;20403;-61
2022/06/27 04:08:58;;;;;;;15.25;3.85;;;;;;;;;;5033144;28;20137;-60
2022/06/27 04:11:24;;;;;;;18.25;4.28;;;;;;;;;;5031499;28;20100;-62
2022/06/27 04:13:50;;;;;;;15.95;4.00;;;;;;;;;;5030860;28;20130;-60
2022/06/27 04:16:16;;;;;;;12.50;4.70;;;;;;;;;;5030884;28;20052;-61
2022/06/27 04:18:42;;;;;;;12.68;4.43;;;;;;;;;;5030639;28;20363;-60
2022/06/27 04:21:08;;;;;;;9.95;4.30;;;;;;;;;;5032706;28;20042;-64
2022/06/27 04:23:34;;;;;;;8.50;3.90;;;;;;;;;;5032742;28;20067;-62
2022/06/27 04:25:59;;;;;;;14.05;3.70;;;;;;;;;;5033642;28;20099;-60
2022/06/27 04:28:25;;;;;;;12.30;3.80;;;;;;;;;;5031275;28;20076;-60
2022/06/27 04:30:52;;;;;;;13.38;4.28;;;;;;;;;;5032011;28;20057;-61
2022/06/27 04:33:19;;;;;;;12.82;4.45;;;;;;;;;;5032880;28;20476;-60
2022/06/27 04:35:46;;;;;;;13.27;4.15;;;;;;;;;;5030541;28;20053;-62
2022/06/27 04:38:13;;;;;;;12.00;3.78;;;;;;;;;;5030542;28;20044;-61
2022/06/27 04:40:39;;;;;;;16.10;3.95;;;;;;;;;;5029081;28;20049;-60
2022/06/27 04:43:06;;;;;;;13.57;3.90;;;;;;;;;;5027579;28;20071;-59
2022/06/27 04:45:33;;;;;;;10.45;3.40;;;;;;;;;;5030947;28;20054;-61
2022/06/27 04:48:00;;;;;;;10.45;3.58;;;;;;;;;;5029883;28;20056;-61
2022/06/27 04:50:26;;;;;;;11.13;3.65;;;;;;;;;;5030629;28;20049;-61
2022/06/27 04:52:52;;;;;;;13.75;3.30;;;;;;;;;;5030247;28;20568;-63
2022/06/27 04:55:20;;;;;;;11.57;3.55;;;;;;;;;;5029762;28;20128;-60
2022/06/27 04:57:46;;;;;;;11.55;3.40;;;;;;;;;;5031013;28;20042;-63
2022/06/27 05:00:15;;;;;;;8.65;3.05;;;;;;;;;;5027962;28;20049;-63
2022/06/27 05:02:41;;;;;;;13.98;3.45;;;;;;;;;;5031613;28;20068;-60
2022/06/27 05:05:08;;;;;;;9.02;3.00;;;;;;;;;;5032240;28;20060;-61
2022/06/27 05:07:34;;;;;;;9.18;3.42;;;;;;;;;;5036057;28;20104;-60
2022/06/27 05:10:00;;;;;;;7.30;3.53;;;;;;;;;;5031504;28;20045;-62
2022/06/27 05:12:27;;;;;;;10.75;3.45;;;;;;;;;;5030890;28;20583;-62
2022/06/27 05:14:54;;;;;;;8.45;3.70;;;;;;;;;;5032168;28;20200;-61
2022/06/27 05:17:21;;;;;;;10.75;3.72;;;;;;;;;;5030894;28;20049;-62
2022/06/27 05:19:47;;;;;;;12.25;3.92;;;;;;;;;;5032176;28;20049;-64
2022/06/27 05:22:13;;;;;;;11.68;3.72;;;;;;;;;;5027819;28;20045;-61
2022/06/27 05:24:39;;;;;;;11.43;4.03;;;;;;;;;;5031776;28;20056;-63
2022/06/27 05:27:05;;;;;;;11.77;4.32;;;;;;;;;;5028380;28;20077;-61
2022/06/27 05:29:32;;;;;;;11.70;3.75;;;;;;;;;;5019752;28;20117;-61
2022/06/27 05:31:59;;;;;;;13.20;3.92;;;;;;;;;;5029726;28;20107;-62
2022/06/27 05:34:25;;;;;;;14.15;4.22;;;;;;;;;;5031330;28;20133;-59
2022/06/27 05:36:51;;;;;;;14.50;4.03;;;;;;;;;;5030323;28;20132;-63
2022/06/27 05:39:17;;;;;;;11.88;3.92;;;;;;;;;;5031237;28;20037;-59
2022/06/27 05:41:45;;;;;;;12.55;3.65;;;;;;;;;;5030501;28;20057;-61
2022/06/27 05:44:13;;;;;;;11.10;3.28;;;;;;;;;;5031276;28;20045;-61
2022/06/27 05:46:40;;;;;;;13.13;3.20;;;;;;;;;;5031928;28;20075;-60
2022/06/27 05:49:07;;;;;;;11.48;2.80;;;;;;;;;;5030976;28;20044;-62
2022/06/27 05:51:33;;;;;;;11.63;4.15;;;;;;;;;;5030145;28;20073;-62
2022/06/27 05:54:01;;;;;;;15.85;3.60;;;;;;;;;;5028592;28;20045;-65
2022/06/27 05:56:28;;;;;;;9.80;3.20;;;;;;;;;;5027180;28;20089;-61
2022/06/27 05:58:55;;;;;;;9.88;3.15;;;;;;;;;;5029709;28;20046;-65
2022/06/27 06:01:23;;;;;;;12.00;3.00;;;;;;;;;;5028828;28;20065;-62
2022/06/27 06:03:49;;;;;;;13.15;3.10;;;;;;;;;;5028302;28;20069;-62
2022/06/27 06:06:16;;;;;;;12.27;3.25;;;;;;;;;;5025785;28;20045;-59
2022/06/27 06:08:43;;;;;;;10.50;3.50;;;;;;;;;;5027893;28;20068;-63
2022/06/27 06:11:12;;;;;;;11.85;3.90;;;;;;;;;;5030995;28;20045;-61
2022/06/27 06:13:39;;;;;;;10.73;3.45;;;;;;;;;;5030942;28;20045;-62
2022/06/27 06:16:06;;;;;;;11.80;3.05;;;;;;;;;;5030245;28;20049;-63
2022/06/27 06:18:33;;;;;;;7.85;2.80;;;;;;;;;;5028391;28;20041;-61
2022/06/27 06:20:59;;;;;;;12.98;3.40;;;;;;;;;;5030264;28;20143;-60
2022/06/27 06:23:25;;;;;;;11.32;2.97;;;;;;;;;;5029328;28;20147;-59
2022/06/27 06:25:52;;;;;;;10.35;3.00;;;;;;;;;;5028724;28;20111;-61
2022/06/27 06:28:18;;;;;;;15.73;3.67;;;;;;;;;;5027986;28;20052;-63
2022/06/27 06:30:44;;;;;;;11.30;3.53;;;;;;;;;;5030587;28;20045;-60
2022/06/27 06:33:10;;;;;;;11.70;3.50;;;;;;;;;;5030138;28;20132;-62
2022/06/27 06:35:36;;;;;;;9.40;2.90;;;;;;;;;;5030354;28;20088;-61
2022/06/27 06:38:03;;;;;;;10.48;3.70;;;;;;;;;;5029679;28;20402;-66
2022/06/27 06:40:30;;;;;;;15.43;3.60;;;;;;;;;;5028780;28;20132;-62
2022/06/27 06:42:59;;;;;;;11.38;2.80;;;;;;;;;;5029215;28;20052;-62
2022/06/27 06:45:25;;;;;;;9.65;2.53;;;;;;;;;;5029643;28;20172;-63
2022/06/27 06:47:52;;;;;;;8.13;2.85;;;;;;;;;;5024363;28;20050;-63
2022/06/27 06:50:18;;;;;;;8.05;2.60;;;;;;;;;;5029126;28;20572;-62
2022/06/27 06:52:49;;;;;;;6.55;2.20;;;;;;;;;;5028092;28;20136;-61
2022/06/27 06:55:16;;;;;;;8.52;2.65;;;;;;;;;;5029029;28;20091;-62
2022/06/27 06:57:43;;;;;;;12.13;2.67;;;;;;;;;;5027778;28;20518;-64
2022/06/27 07:00:10;;;;;;;12.95;2.70;;;;;;;;;;5023723;28;20049;-63
2022/06/27 07:02:37;;;;;;;12.55;2.78;;;;;;;;;;5025258;28;20049;-64
2022/06/27 07:05:04;;;;;;;7.50;2.33;;;;;;;;;;5027538;28;20053;-62
2022/06/27 07:07:32;;;;;;;9.00;2.30;;;;;;;;;;5026728;28;20057;-63
2022/06/27 07:09:59;;;;;;;8.82;2.60;;;;;;;;;;5026235;28;20114;-62
2022/06/27 07:12:26;;;;;;;10.45;2.40;;;;;;;;;;5022055;28;20054;-61
2022/06/27 07:14:54;;;;;;;7.85;2.20;;;;;;;;;;5023527;28;20049;-62
2022/06/27 07:17:24;;;;;;;9.68;2.30;;;;;;;;;;5025707;28;20042;-61
2022/06/27 07:19:52;;;;;;;11.43;2.17;;;;;;;;;;5030870;28;20495;-63
2022/06/27 07:22:30;;;;;;;10.50;2.25;;;;;;;;;;5031043;28;20044;-63
2022/06/27 07:24:56;;;;;;;11.90;2.03;;;;;;;;;;5024797;28;20045;-61
2022/06/27 07:27:23;;;;;;;8.02;2.00;;;;;;;;;;5024276;28;20052;-61
2022/06/27 07:29:49;;;;;;;12.95;2.10;;;;;;;;;;5026557;28;20049;-61
2022/06/27 07:32:15;;;;;;;13.32;2.42;;;;;;;;;;5025405;28;20045;-64
2022/06/27 07:34:40;;;;;;;11.23;2.10;;;;;;;;;;5027977;28;20056;-61
2022/06/27 07:37:06;;;;;;;10.70;2.15;;;;;;;;;;5021648;28;20045;-63
2022/06/27 07:39:32;;;;;;;6.55;1.90;;;;;;;;;;5030089;28;20465;-63
2022/06/27 07:41:58;;;;;;;10.88;2.35;;;;;;;;;;5032903;28;20124;-61
2022/06/27 07:44:25;;;;;;;6.10;2.10;;;;;;;;;;5027470;28;20080;-62
2022/06/27 07:46:51;;;;;;;12.00;3.13;;;;;;;;;;5027209;28;20049;-63
2022/06/27 07:49:17;;;;;;;5.63;1.77;;;;;;;;;;5030682;28;20178;-63
2022/06/27 07:51:43;;;;;;;13.02;2.25;;;;;;;;;;5028281;28;20132;-63
2022/06/27 07:54:10;;;;;;;9.60;2.00;;;;;;;;;;5027894;28;20050;-65
2022/06/27 07:56:37;;;;;;;6.50;1.70;;;;;;;;;;5032794;28;20387;-61
2022/06/27 07:59:06;;;;;;;10.02;1.88;;;;;;;;;;5027513;28;20076;-62
2022/06/27 08:01:33;;;;;;;5.28;1.65;;;;;;;;;;5019943;28;20124;-63
2022/06/27 08:03:59;;;;;;;10.48;1.88;;;;;;;;;;5025130;28;20407;-64
2022/06/27 08:06:27;;;;;;;10.85;2.63;;;;;;;;;;5027787;28;20045;-63
2022/06/27 08:09:00;;;;;;;7.68;1.90;;;;;;;;;;5025901;28;20045;-62
2022/06/27 08:11:29;;;;;;;4.78;1.70;;;;;;;;;;5028642;28;20152;-60
2022/06/27 08:13:57;;;;;;;15.48;2.00;;;;;;;;;;5027221;28;20045;-62
2022/06/27 08:16:25;;;;;;;9.48;2.40;;;;;;;;;;5030878;28;20069;-63
2022/06/27 08:18:52;;;;;;;8.70;2.35;;;;;;;;;;5032738;28;20602;-64
2022/06/27 08:21:23;;;;;;;7.95;2.00;;;;;;;;;;5027780;28;20042;-66
2022/06/27 08:23:51;;;;;;;9.80;1.95;;;;;;;;;;5029856;28;20115;-62
2022/06/27 08:26:17;;;;;;;7.78;1.83;;;;;;;;;;5025182;28;20414;-63
2022/06/27 08:28:46;;;;;;;8.25;1.90;;;;;;;;;;5023363;28;20106;-62
2022/06/27 08:31:12;;;;;;;10.95;1.88;;;;;;;;;;5030416;28;20124;-63
2022/06/27 08:33:45;;;;;;;3.78;1.42;;;;;;;;;;5028760;28;20053;-63
2022/06/27 08:36:14;;;;;;;6.93;1.50;;;;;;;;;;5029742;28;20053;-65
2022/06/27 08:38:48;;;;;;;10.63;2.47;;;;;;;;;;5028088;28;20042;-61
2022/06/27 08:41:15;;;;;;;4.85;1.92;;;;;;;;;;5027816;28;20045;-64
2022/06/27 08:43:41;;;;;;;6.80;1.83;;;;;;;;;;5022640;28;20407;-64
2022/06/27 08:46:12;;;;;;;6.40;1.70;;;;;;;;;;5030275;28;20045;-64
2022/06/27 08:48:41;;;;;;;9.88;1.92;;;;;;;;;;5029622;28;20050;-62
2022/06/27 08:51:07;;;;;;;8.98;2.00;;;;;;;;;;5030275;28;20115;-63
2022/06/27 08:53:34;;;;;;;11.57;2.58;;;;;;;;;;5029485;28;20568;-63
2022/06/27 08:56:01;;;;;;;10.73;2.50;;;;;;;;;;5027422;28;20041;-62
2022/06/27 08:58:29;;;;;;;9.73;1.80;;;;;;;;;;5026844;28;20051;-61
2022/06/27 09:00:56;;;;;;;10.35;1.90;;;;;;;;;;5024146;28;20049;-65
2022/06/27 09:03:23;;;;;;;9.18;2.30;;;;;;;;;;5029432;28;20054;-69
2022/06/27 09:06:10;;;;;;;9.98;2.08;;;;;;;;;;5031919;28;20270;-63
2022/06/27 09:08:55;;;;;;;6.07;1.80;;;;;;;;;;5031435;28;20049;-68
2022/06/27 09:11:29;;;;;;;13.07;2.17;;;;;;;;;;5028731;28;20096;-61
2022/06/27 09:13:55;;;;;;;5.82;1.83;;;;;;;;;;5027593;28;20061;-61
2022/06/27 09:16:21;;;;;;;9.30;2.17;;;;;;;;;;5026730;28;20053;-61
2022/06/27 09:18:47;;;;;;;11.35;2.38;;;;;;;;;;5031166;28;20111;-62
2022/06/27 09:21:13;;;;;;;12.43;2.00;;;;;;;;;;5031425;28;20077;-63
2022/06/27 09:23:40;;;;;;;11.20;2.45;;;;;;;;;;5031530;28;20114;-61
2022/06/27 09:26:14;;;;;;;9.23;2.13;;;;;;;;;;5024930;28;20045;-63
2022/06/27 09:28:56;;;;;;;7.63;2.05;;;;;;;;;;5027258;28;20100;-62
2022/06/27 09:31:25;;;;;;;9.60;2.00;;;;;;;;;;5029187;28;20261;-63
2022/06/27 09:34:14;;;;;;;8.35;2.08;;;;;;;;;;5028901;28;20067;-64
2022/06/27 09:36:43;;;;;;;7.18;2.05;;;;;;;;;;5028467;28;20119;-63
2022/06/27 09:39:37;;;;;;;10.95;2.00;;;;;;;;;;5029248;28;20064;-63
2022/06/27 09:42:10;;;;;;;9.20;2.03;;;;;;;;;;5028450;28;20108;-63
2022/06/27 09:44:41;;;;;;;10.68;2.30;;;;;;;;;;5022005;28;20064;-64
2022/06/27 09:47:24;;;;;;;7.22;1.70;;;;;;;;;;5026082;28;20041;-67
2022/06/27 09:49:59;;;;;;;9.68;1.90;;;;;;;;;;5026908;28;20053;-65
2022/06/27 09:52:26;;;;;;;11.38;2.10;;;;;;;;;;5023078;28;20064;-64
2022/06/27 09:54:54;;;;;;;9.20;2.10;;;;;;;;;;5021118;28;20068;-62
2022/06/27 09:57:20;;;;;;;11.32;2.70;;;;;;;;;;5027074;28;20092;-63
2022/06/27 09:59:49;;;;;;;8.52;2.25;;;;;;;;;;5029078;28;20100;-64
2022/06/27 10:02:17;;;;;;;6.28;2.40;;;;;;;;;;5028141;28;20055;-62
2022/06/27 10:04:44;;;;;;;9.82;2.80;;;;;;;;;;5026955;28;20140;-62
2022/06/27 10:07:12;;;;;;;9.32;2.88;;;;;;;;;;5027340;28;20411;-61
2022/06/27 10:09:40;;;;;;;14.68;2.20;;;;;;;;;;5028022;28;20065;-68
2022/06/27 10:12:27;;;;;;;10.27;2.05;;;;;;;;;;5028843;28;20455;-62
2022/06/27 10:15:12;;;;;;;7.40;2.22;;;;;;;;;;5026763;28;20056;-63
2022/06/27 10:17:47;;;;;;;11.43;2.63;;;;;;;;;;5027224;28;20072;-61
2022/06/27 10:20:21;;;;;;;12.75;2.45;;;;;;;;;;5026721;28;20052;-64
2022/06/27 10:23:09;;;;;;;11.68;2.67;;;;;;;;;;5028610;28;20049;-65
2022/06/27 10:25:44;;;;;;;16.35;5.05;;;;;;;;;;5024696;28;20564;-64
2022/06/27 10:28:13;;;;;;;6.47;2.20;;;;;;;;;;5029145;28;20098;-65
2022/06/27 10:30:47;;;;;;;7.68;2.20;;;;;;;;;;5024037;28;20410;-65
2022/06/27 10:33:19;;;;;;;12.98;2.53;;;;;;;;;;5025861;28;20051;-69
2022/06/27 10:36:14;;;;;;;12.02;2.60;;;;;;;;;;5019673;28;20483;-64
2022/06/27 10:38:39;;;;;;;;;;;;;;;;;;5033891;28;20124;-62
2022/06/27 10:41:11;;;;;;;9.85;2.10;;;;;;;;;;5024884;28;19921;-65
2022/06/27 10:43:36;;;;;;;12.43;2.40;;;;;;;;;;5025519;28;20050;-64
2022/06/27 10:46:11;;;;;;;14.73;2.97;;;;;;;;;;5026814;28;20048;-67
2022/06/27 10:48:38;;;;;;;13.43;2.45;;;;;;;;;;5022249;28;20060;-71
2022/06/27 10:51:33;;;;;;;12.13;2.72;;;;;;;;;;5028474;28;20132;-65
2022/06/27 10:53:59;;;;;;;10.85;2.50;;;;;;;;;;5025004;28;20047;-62
2022/06/27 10:56:39;;;;;;;10.50;2.42;;;;;;;;;;5029358;28;20101;-65
2022/06/27 10:59:13;;;;;;;13.98;2.85;;;;;;;;;;5030393;28;20041;-63
2022/06/27 11:01:40;;;;;;;12.52;2.53;;;;;;;;;;5029488;28;20085;-62
2022/06/27 11:04:06;;;;;;;17.15;3.08;;;;;;;;;;5027642;28;20046;-62
2022/06/27 11:06:32;;;;;;;10.32;2.20;;;;;;;;;;5026318;28;20137;-62
2022/06/27 11:08:58;;;;;;;11.93;2.90;;;;;;;;;;5030402;28;20191;-63
2022/06/27 11:11:26;;;;;;;16.98;2.88;;;;;;;;;;5027699;28;20072;-63
2022/06/27 11:13:57;;;;;;;13.27;3.13;;;;;;;;;;5017483;28;20056;-66
2022/06/27 11:16:27;;;;;;;11.88;2.95;;;;;;;;;;5024712;28;20612;-64
2022/06/27 11:18:59;;;;;;;15.35;2.75;;;;;;;;;;5022309;28;20045;-63
2022/06/27 11:21:27;;;;;;;14.02;2.85;;;;;;;;;;5021990;28;20037;-65
2022/06/27 11:23:58;;;;;;;13.20;2.80;;;;;;;;;;5026787;28;20038;-64
2022/06/27 11:26:27;;;;;;;8.95;2.55;;;;;;;;;;5025503;28;20041;-68
2022/06/27 11:34:26;;;;;;;12.85;2.58;;;;;;;;;;5019269;28;20050;-63
2022/06/27 11:36:53;;;;;;;13.27;2.40;;;;;;;;;;5028326;28;20054;-62
2022/06/27 11:39:27;;;;;;;13.93;2.47;;;;;;;;;;5029546;28;20053;-63
2022/06/27 11:41:59;;;;;;;9.55;2.78;;;;;;;;;;5025467;28;20076;-67
2022/06/27 11:44:26;;;;;;;11.88;2.70;;;;;;;;;;5029490;28;20049;-67
2022/06/27 11:47:09;;;;;;;8.57;2.40;;;;;;;;;;5025284;28;20042;-65
2022/06/27 11:49:38;;;;;;;12.80;2.80;;;;;;;;;;5030439;28;20537;-67
2022/06/27 11:52:06;;;;;;;11.50;2.58;;;;;;;;;;5026094;28;20041;-66
2022/06/27 11:54:50;;;;;;;8.88;2.40;;;;;;;;;;5027677;28;20053;-65
2022/06/27 11:57:29;;;;;;;17.23;3.35;;;;;;;;;;5028384;28;20698;-64
2022/06/27 11:59:57;;;;;;;11.10;2.40;;;;;;;;;;5029081;28;20049;-66
2022/06/27 12:02:38;;;;;;;18.00;3.20;;;;;;;;;;5027129;28;20136;-66
2022/06/27 12:05:06;;;;;;;14.05;2.80;;;;;;;;;;5028161;28;20057;-64
2022/06/27 12:07:47;;;;;;;13.95;2.50;;;;;;;;;;5026469;28;20091;-64
2022/06/27 12:10:14;;;;;;;5.15;2.13;;;;;;;;;;5023526;28;20049;-67
2022/06/27 12:12:44;;;;;;;14.00;3.10;;;;;;;;;;5021663;28;20064;-65
2022/06/27 12:15:23;;;;;;;9.85;2.40;;;;;;;;;;5018252;28;20056;-66
2022/06/27 12:17:56;;;;;;;11.13;2.78;;;;;;;;;;5018756;28;20055;-64
2022/06/27 12:20:22;;;;;;;12.85;2.70;;;;;;;;;;5027315;28;20555;-65
2022/06/27 12:22:48;;;;;;;11.73;2.58;;;;;;;;;;5022595;28;20061;-66
2022/06/27 12:25:14;;;;;;;14.57;2.95;;;;;;;;;;5031416;28;20406;-66
2022/06/27 12:27:43;;;;;;;11.55;3.25;;;;;;;;;;5033665;28;20071;-63
2022/06/27 12:30:10;;;;;;;19.67;3.85;;;;;;;;;;5032464;28;20114;-64
2022/06/27 12:32:36;;;;;;;17.20;3.08;;;;;;;;;;5023859;28;20050;-69
2022/06/27 12:35:03;;;;;;;16.30;2.47;;;;;;;;;;5032052;28;20556;-63
2022/06/27 12:37:29;;;;;;;15.23;2.72;;;;;;;;;;5034752;28;20139;-64
2022/06/27 12:39:55;;;;;;;15.00;3.35;;;;;;;;;;5033065;28;20077;-66
2022/06/27 12:42:21;;;;;;;11.68;3.05;;;;;;;;;;5029453;28;20052;-64
2022/06/27 12:44:47;;;;;;;11.13;3.00;;;;;;;;;;5028056;28;20125;-62
2022/06/27 12:47:13;;;;;;;17.75;3.38;;;;;;;;;;5030197;28;20176;-64
2022/06/27 12:49:38;;;;;;;12.77;3.13;;;;;;;;;;5055253;28;20137;-65
2022/06/27 12:52:04;;;;;;;11.05;2.70;;;;;;;;;;5029995;28;20050;-64
2022/06/27 12:54:31;;;;;;;12.60;2.90;;;;;;;;;;5030093;28;20084;-63
2022/06/27 12:56:57;;;;;;;9.10;2.53;;;;;;;;;;5031605;28;20500;-63
2022/06/27 12:59:22;;;;;;;12.40;2.58;;;;;;;;;;5033069;28;20100;-64
2022/06/27 13:01:50;;;;;;;13.98;2.40;;;;;;;;;;5029540;28;20053;-65
2022/06/27 13:04:16;;;;;;;16.80;2.70;;;;;;;;;;5030656;28;20100;-65
2022/06/27 13:06:42;;;;;;;14.60;2.63;;;;;;;;;;5031166;28;20046;-67
2022/06/27 13:09:08;;;;;;;13.75;2.78;;;;;;;;;;5026414;28;20474;-67
2022/06/27 13:11:34;;;;;;;16.42;3.00;;;;;;;;;;5026444;28;20041;-64
2022/06/27 13:14:00;;;;;;;11.68;2.80;;;;;;;;;;5027360;28;20091;-65
2022/06/27 13:16:26;;;;;;;13.93;2.97;;;;;;;;;;5025999;28;20049;-65
2022/06/27 13:18:52;;;;;;;13.80;2.38;;;;;;;;;;5029479;28;20132;-70
2022/06/27 13:21:18;;;;;;;14.32;2.70;;;;;;;;;;5025676;28;20109;-62
2022/06/27 13:23:44;;;;;;;11.50;2.67;;;;;;;;;;5031952;28;20045;-70
2022/06/27 13:26:10;;;;;;;12.02;2.90;;;;;;;;;;5035853;28;20044;-64
2022/06/27 13:28:35;;;;;;;13.02;2.78;;;;;;;;;;5029836;28;20041;-64
2022/06/27 13:31:01;;;;;;;12.60;2.70;;;;;;;;;;5030097;28;20048;-65
2022/06/27 13:33:27;;;;;;;12.80;2.72;;;;;;;;;;5028979;28;20483;-64
2022/06/27 13:35:54;;;;;;;11.82;2.83;;;;;;;;;;5029729;28;20038;-63
2022/06/27 13:38:20;;;;;;;11.27;3.05;;;;;;;;;;5030605;28;20138;-65
2022/06/27 13:40:46;;;;;;;12.98;2.85;;;;;;;;;;5026977;28;20041;-66
2022/06/27 13:43:12;;;;;;;16.17;3.58;;;;;;;;;;5028225;28;20106;-68
2022/06/27 13:45:39;;;;;;;10.15;2.90;;;;;;;;;;5027527;28;20064;-64
2022/06/27 13:48:07;;;;;;;10.48;3.05;;;;;;;;;;5027112;28;20076;-66
2022/06/27 13:50:35;;;;;;;13.20;2.97;;;;;;;;;;5030741;28;20072;-66
2022/06/27 13:53:05;;;;;;;17.75;3.00;;;;;;;;;;5030197;28;20099;-71
2022/06/27 13:55:37;;;;;;;12.13;2.80;;;;;;;;;;5029390;28;20471;-65
2022/06/27 13:58:04;;;;;;;17.38;3.58;;;;;;;;;;5031561;28;20045;-63
2022/06/27 14:00:32;;;;;;;18.35;2.90;;;;;;;;;;5028968;28;20049;-63
2022/06/27 14:02:57;;;;;;;14.18;2.63;;;;;;;;;;5029869;28;20038;-62
2022/06/27 14:05:24;;;;;;;14.73;2.90;;;;;;;;;;5029974;28;20128;-63
2022/06/27 14:07:51;;;;;;;17.75;2.55;;;;;;;;;;5029070;28;20045;-69
2022/06/27 14:10:19;;;;;;;11.82;2.30;;;;;;;;;;5029205;28;20037;-65
2022/06/27 14:12:48;;;;;;;10.40;2.90;;;;;;;;;;5029644;28;20052;-65
2022/06/27 14:15:15;;;;;;;10.93;2.58;;;;;;;;;;5030001;28;20055;-66
2022/06/27 14:17:41;;;;;;;11.38;2.20;;;;;;;;;;5024895;28;20100;-62
2022/06/27 14:20:09;;;;;;;8.40;2.20;;;;;;;;;;5027791;28;20049;-65
2022/06/27 14:22:36;;;;;;;13.35;2.60;;;;;;;;;;5027142;28;20091;-68
2022/06/27 14:25:03;;;;;;;14.65;2.45;;;;;;;;;;5027427;28;20132;-68
2022/06/27 14:27:30;;;;;;;12.73;2.60;;;;;;;;;;5023771;28;20140;-66
2022/06/27 14:29:57;;;;;;;11.98;2.47;;;;;;;;;;5025170;28;20054;-68
2022/06/27 14:32:24;;;;;;;9.10;2.00;;;;;;;;;;5027518;28;20045;-68
2022/06/27 14:34:50;;;;;;;7.93;2.30;;;;;;;;;;5027098;28;20478;-66
2022/06/27 14:37:16;;;;;;;6.32;1.90;;;;;;;;;;5027806;28;20396;-70
2022/06/27 14:39:42;;;;;;;11.48;2.28;;;;;;;;;;5055941;28;20041;-73
2022/06/27 14:42:08;;;;;;;10.13;2.20;;;;;;;;;;5024824;28;20045;-68
2022/06/27 14:44:34;;;;;;;11.98;2.55;;;;;;;;;;5024822;28;20095;-69
2022/06/27 14:47:05;;;;;;;9.52;2.13;;;;;;;;;;5027163;28;20107;-71
2022/06/27 14:49:31;;;;;;;7.65;2.05;;;;;;;;;;5029476;28;20053;-67
2022/06/27 14:51:57;;;;;;;10.63;2.00;;;;;;;;;;5025582;28;20045;-73